sensor_id;sensor_type;location;lat;lon;timestamp;temperature;humidity
14798;DHT22;7490;63.708;20.368;2022-09-21T00:00:40;5.20;83.40
14798;DHT22;7490;63.708;20.368;2022-09-21T00:03:05;5.30;83.50
14798;DHT22;7490;63.708;20.368;2022-09-21T00:05:32;5.20;83.50
14798;DHT22;7490;63.708;20.368;2022-09-21T00:08:05;5.20;83.70
14798;DHT22;7490;63.708;20.368;2022-09-21T00:10:31;5.20;83.70
14798;DHT22;7490;63.708;20.368;2022-09-21T00:12:58;5.20;83.60
14798;DHT22;7490;63.708;20.368;2022-09-21T00:15:24;5.20;83.70
14798;DHT22;7490;63.708;20.368;2022-09-21T00:17:54;5.10;83.70
14798;DHT22;7490;63.708;20.368;2022-09-21T00:20:20;5.10;83.70
14798;DHT22;7490;63.708;20.368;2022-09-21T00:22:47;5.10;83.80
14798;DHT22;7490;63.708;20.368;2022-09-21T00:25:13;5.10;83.90
14798;DHT22;7490;63.708;20.368;2022-09-21T00:27:39;5.10;83.90
14798;DHT22;7490;63.708;20.368;2022-09-21T00:30:06;5.10;83.90
14798;DHT22;7490;63.708;20.368;2022-09-21T00:32:33;5.10;84.00
14798;DHT22;7490;63.708;20.368;2022-09-21T00:35:00;5.10;84.10
14798;DHT22;7490;63.708;20.368;2022-09-21T00:37:27;5.00;84.00
14798;DHT22;7490;63.708;20.368;2022-09-21T00:39:54;5.00;84.10
14798;DHT22;7490;63.708;20.368;2022-09-21T00:44:50;5.00;84.20
14798;DHT22;7490;63.708;20.368;2022-09-21T00:47:20;5.00;84.20
14798;DHT22;7490;63.708;20.368;2022-09-21T00:49:50;5.00;84.30
14798;DHT22;7490;63.708;20.368;2022-09-21T00:52:18;5.00;84.30
14798;DHT22;7490;63.708;20.368;2022-09-21T00:54:57;5.00;84.30
14798;DHT22;7490;63.708;20.368;2022-09-21T00:57:26;5.00;84.40
14798;DHT22;7490;63.708;20.368;2022-09-21T00:59:55;5.00;84.60
14798;DHT22;7490;63.708;20.368;2022-09-21T01:02:22;4.90;84.60
14798;DHT22;7490;63.708;20.368;2022-09-21T01:04:48;4.90;84.70
14798;DHT22;7490;63.708;20.368;2022-09-21T01:07:21;4.90;84.60
14798;DHT22;7490;63.708;20.368;2022-09-21T01:09:53;4.90;84.80
14798;DHT22;7490;63.708;20.368;2022-09-21T01:15:22;4.90;84.90
14798;DHT22;7490;63.708;20.368;2022-09-21T01:24:11;4.90;85.00
14798;DHT22;7490;63.708;20.368;2022-09-21T01:30:16;4.80;84.80
14798;DHT22;7490;63.708;20.368;2022-09-21T01:32:58;4.80;84.70
14798;DHT22;7490;63.708;20.368;2022-09-21T01:35:32;4.80;84.80
14798;DHT22;7490;63.708;20.368;2022-09-21T01:38:09;4.80;84.80
14798;DHT22;7490;63.708;20.368;2022-09-21T01:40:40;4.80;84.90
14798;DHT22;7490;63.708;20.368;2022-09-21T01:43:11;4.80;85.00
14798;DHT22;7490;63.708;20.368;2022-09-21T01:45:42;4.70;85.20
14798;DHT22;7490;63.708;20.368;2022-09-21T01:48:10;4.80;85.40
14798;DHT22;7490;63.708;20.368;2022-09-21T01:50:41;4.80;85.50
14798;DHT22;7490;63.708;20.368;2022-09-21T01:53:43;4.80;85.40
14798;DHT22;7490;63.708;20.368;2022-09-21T01:56:12;4.80;85.40
14798;DHT22;7490;63.708;20.368;2022-09-21T02:01:18;4.80;85.40
14798;DHT22;7490;63.708;20.368;2022-09-21T02:03:52;4.70;85.40
14798;DHT22;7490;63.708;20.368;2022-09-21T02:06:19;4.80;85.50
14798;DHT22;7490;63.708;20.368;2022-09-21T02:08:45;4.80;85.70
14798;DHT22;7490;63.708;20.368;2022-09-21T02:11:11;4.80;85.70
14798;DHT22;7490;63.708;20.368;2022-09-21T02:13:41;4.80;85.70
14798;DHT22;7490;63.708;20.368;2022-09-21T02:18:51;4.70;85.70
14798;DHT22;7490;63.708;20.368;2022-09-21T02:24:37;4.70;85.80
14798;DHT22;7490;63.708;20.368;2022-09-21T02:29:50;4.70;85.80
14798;DHT22;7490;63.708;20.368;2022-09-21T02:37:49;4.60;85.60
14798;DHT22;7490;63.708;20.368;2022-09-21T02:40:29;4.60;85.70
14798;DHT22;7490;63.708;20.368;2022-09-21T02:43:32;4.60;85.80
14798;DHT22;7490;63.708;20.368;2022-09-21T02:46:04;4.60;85.80
14798;DHT22;7490;63.708;20.368;2022-09-21T02:48:42;4.60;85.80
14798;DHT22;7490;63.708;20.368;2022-09-21T02:51:17;4.50;85.80
14798;DHT22;7490;63.708;20.368;2022-09-21T02:53:45;4.50;85.90
14798;DHT22;7490;63.708;20.368;2022-09-21T02:56:13;4.50;85.90
14798;DHT22;7490;63.708;20.368;2022-09-21T02:58:49;4.50;85.90
14798;DHT22;7490;63.708;20.368;2022-09-21T03:01:19;4.50;86.00
14798;DHT22;7490;63.708;20.368;2022-09-21T03:03:45;4.50;86.30
14798;DHT22;7490;63.708;20.368;2022-09-21T03:06:11;4.50;86.30
14798;DHT22;7490;63.708;20.368;2022-09-21T03:08:37;4.50;86.40
14798;DHT22;7490;63.708;20.368;2022-09-21T03:11:02;4.50;86.40
14798;DHT22;7490;63.708;20.368;2022-09-21T03:13:28;4.50;86.50
14798;DHT22;7490;63.708;20.368;2022-09-21T03:16:02;4.50;86.40
14798;DHT22;7490;63.708;20.368;2022-09-21T03:18:29;4.50;86.50
14798;DHT22;7490;63.708;20.368;2022-09-21T03:20:55;4.50;86.50
14798;DHT22;7490;63.708;20.368;2022-09-21T03:23:21;4.50;86.70
14798;DHT22;7490;63.708;20.368;2022-09-21T03:25:47;4.50;86.70
14798;DHT22;7490;63.708;20.368;2022-09-21T03:28:13;4.50;86.70
14798;DHT22;7490;63.708;20.368;2022-09-21T03:30:39;4.50;86.70
14798;DHT22;7490;63.708;20.368;2022-09-21T03:33:05;4.50;86.70
14798;DHT22;7490;63.708;20.368;2022-09-21T03:35:31;4.50;86.70
14798;DHT22;7490;63.708;20.368;2022-09-21T03:38:00;4.50;86.90
14798;DHT22;7490;63.708;20.368;2022-09-21T03:40:27;4.50;87.00
14798;DHT22;7490;63.708;20.368;2022-09-21T03:42:53;4.50;87.00
14798;DHT22;7490;63.708;20.368;2022-09-21T03:45:20;4.40;86.90
14798;DHT22;7490;63.708;20.368;2022-09-21T03:47:59;4.50;87.00
14798;DHT22;7490;63.708;20.368;2022-09-21T03:50:26;4.40;87.70
14798;DHT22;7490;63.708;20.368;2022-09-21T03:52:53;4.40;87.00
14798;DHT22;7490;63.708;20.368;2022-09-21T03:55:19;4.40;87.00
14798;DHT22;7490;63.708;20.368;2022-09-21T03:57:46;4.40;87.10
14798;DHT22;7490;63.708;20.368;2022-09-21T04:00:12;4.40;87.30
14798;DHT22;7490;63.708;20.368;2022-09-21T04:02:39;4.40;87.40
14798;DHT22;7490;63.708;20.368;2022-09-21T04:05:09;4.40;87.30
14798;DHT22;7490;63.708;20.368;2022-09-21T04:07:36;4.40;87.20
14798;DHT22;7490;63.708;20.368;2022-09-21T04:10:06;4.40;87.10
14798;DHT22;7490;63.708;20.368;2022-09-21T04:12:33;4.40;87.10
14798;DHT22;7490;63.708;20.368;2022-09-21T04:14:59;4.40;87.20
14798;DHT22;7490;63.708;20.368;2022-09-21T04:17:26;4.40;87.30
14798;DHT22;7490;63.708;20.368;2022-09-21T04:19:51;4.40;87.40
14798;DHT22;7490;63.708;20.368;2022-09-21T04:22:17;4.40;87.50
14798;DHT22;7490;63.708;20.368;2022-09-21T04:24:44;4.40;87.60
14798;DHT22;7490;63.708;20.368;2022-09-21T04:27:10;4.40;87.60
14798;DHT22;7490;63.708;20.368;2022-09-21T04:29:36;4.50;87.80
14798;DHT22;7490;63.708;20.368;2022-09-21T04:32:03;4.50;87.80
14798;DHT22;7490;63.708;20.368;2022-09-21T04:34:29;4.50;87.90
14798;DHT22;7490;63.708;20.368;2022-09-21T04:36:56;4.50;88.00
14798;DHT22;7490;63.708;20.368;2022-09-21T04:39:22;4.60;88.20
14798;DHT22;7490;63.708;20.368;2022-09-21T04:41:48;4.60;88.30
14798;DHT22;7490;63.708;20.368;2022-09-21T04:44:14;4.60;88.30
14798;DHT22;7490;63.708;20.368;2022-09-21T04:46:40;4.60;88.30
14798;DHT22;7490;63.708;20.368;2022-09-21T04:49:06;4.70;88.40
14798;DHT22;7490;63.708;20.368;2022-09-21T04:51:33;4.70;88.40
14798;DHT22;7490;63.708;20.368;2022-09-21T04:53:59;4.80;88.50
14798;DHT22;7490;63.708;20.368;2022-09-21T04:56:25;4.80;88.50
14798;DHT22;7490;63.708;20.368;2022-09-21T04:58:50;4.90;88.70
14798;DHT22;7490;63.708;20.368;2022-09-21T05:01:16;5.00;88.80
14798;DHT22;7490;63.708;20.368;2022-09-21T05:03:42;5.00;88.90
14798;DHT22;7490;63.708;20.368;2022-09-21T05:06:09;5.10;89.00
14798;DHT22;7490;63.708;20.368;2022-09-21T05:08:38;5.40;90.40
14798;DHT22;7490;63.708;20.368;2022-09-21T05:11:22;6.20;91.20
14798;DHT22;7490;63.708;20.368;2022-09-21T05:13:49;7.40;91.50
14798;DHT22;7490;63.708;20.368;2022-09-21T05:16:15;8.60;91.20
14798;DHT22;7490;63.708;20.368;2022-09-21T05:18:41;9.80;90.50
14798;DHT22;7490;63.708;20.368;2022-09-21T05:21:10;10.90;89.80
14798;DHT22;7490;63.708;20.368;2022-09-21T05:23:36;11.90;89.10
14798;DHT22;7490;63.708;20.368;2022-09-21T05:26:01;12.90;87.00
14798;DHT22;7490;63.708;20.368;2022-09-21T05:28:28;13.80;85.50
14798;DHT22;7490;63.708;20.368;2022-09-21T05:31:03;14.70;84.00
14798;DHT22;7490;63.708;20.368;2022-09-21T05:33:31;15.60;81.90
14798;DHT22;7490;63.708;20.368;2022-09-21T05:38:27;17.10;78.40
14798;DHT22;7490;63.708;20.368;2022-09-21T05:40:53;17.90;76.20
14798;DHT22;7490;63.708;20.368;2022-09-21T05:43:19;18.40;73.10
14798;DHT22;7490;63.708;20.368;2022-09-21T05:45:53;18.70;70.20
14798;DHT22;7490;63.708;20.368;2022-09-21T05:48:26;19.00;67.90
14798;DHT22;7490;63.708;20.368;2022-09-21T05:51:02;19.30;66.50
14798;DHT22;7490;63.708;20.368;2022-09-21T06:04:58;20.20;60.80
14798;DHT22;7490;63.708;20.368;2022-09-21T06:07:26;20.80;59.90
14798;DHT22;7490;63.708;20.368;2022-09-21T06:09:51;21.60;58.50
14798;DHT22;7490;63.708;20.368;2022-09-21T06:12:17;22.30;56.90
14798;DHT22;7490;63.708;20.368;2022-09-21T06:14:43;23.00;55.30
14798;DHT22;7490;63.708;20.368;2022-09-21T06:17:08;23.70;53.70
14798;DHT22;7490;63.708;20.368;2022-09-21T06:19:34;24.20;52.10
14798;DHT22;7490;63.708;20.368;2022-09-21T06:22:00;24.70;50.60
14798;DHT22;7490;63.708;20.368;2022-09-21T06:24:26;25.10;49.40
14798;DHT22;7490;63.708;20.368;2022-09-21T06:26:51;25.50;48.40
14798;DHT22;7490;63.708;20.368;2022-09-21T06:29:17;25.90;47.50
14798;DHT22;7490;63.708;20.368;2022-09-21T06:31:48;26.40;46.40
14798;DHT22;7490;63.708;20.368;2022-09-21T06:34:15;26.80;45.50
14798;DHT22;7490;63.708;20.368;2022-09-21T06:36:40;27.10;44.60
14798;DHT22;7490;63.708;20.368;2022-09-21T06:39:06;27.40;43.80
14798;DHT22;7490;63.708;20.368;2022-09-21T06:41:32;27.60;43.20
14798;DHT22;7490;63.708;20.368;2022-09-21T06:43:57;27.90;42.70
14798;DHT22;7490;63.708;20.368;2022-09-21T06:46:23;28.20;41.90
14798;DHT22;7490;63.708;20.368;2022-09-21T06:48:49;28.60;41.30
14798;DHT22;7490;63.708;20.368;2022-09-21T06:51:15;28.80;40.50
14798;DHT22;7490;63.708;20.368;2022-09-21T06:53:40;29.10;39.90
14798;DHT22;7490;63.708;20.368;2022-09-21T06:56:07;29.20;39.30
14798;DHT22;7490;63.708;20.368;2022-09-21T06:58:34;29.40;38.70
14798;DHT22;7490;63.708;20.368;2022-09-21T07:01:07;29.60;38.30
14798;DHT22;7490;63.708;20.368;2022-09-21T07:03:34;29.80;37.30
14798;DHT22;7490;63.708;20.368;2022-09-21T07:06:00;30.00;37.50
14798;DHT22;7490;63.708;20.368;2022-09-21T07:08:26;30.10;37.00
14798;DHT22;7490;63.708;20.368;2022-09-21T07:10:52;30.40;36.60
14798;DHT22;7490;63.708;20.368;2022-09-21T07:13:18;30.60;36.00
14798;DHT22;7490;63.708;20.368;2022-09-21T07:15:43;30.90;35.80
14798;DHT22;7490;63.708;20.368;2022-09-21T07:18:10;31.20;35.30
14798;DHT22;7490;63.708;20.368;2022-09-21T07:20:36;31.50;34.70
14798;DHT22;7490;63.708;20.368;2022-09-21T07:23:14;31.80;34.30
14798;DHT22;7490;63.708;20.368;2022-09-21T07:25:44;32.10;33.30
14798;DHT22;7490;63.708;20.368;2022-09-21T07:28:11;32.30;33.50
14798;DHT22;7490;63.708;20.368;2022-09-21T07:30:40;32.50;32.80
14798;DHT22;7490;63.708;20.368;2022-09-21T07:33:06;32.50;32.50
14798;DHT22;7490;63.708;20.368;2022-09-21T07:35:32;32.60;32.30
14798;DHT22;7490;63.708;20.368;2022-09-21T07:37:59;32.70;31.80
14798;DHT22;7490;63.708;20.368;2022-09-21T07:40:25;32.90;31.50
14798;DHT22;7490;63.708;20.368;2022-09-21T07:42:51;32.90;31.00
14798;DHT22;7490;63.708;20.368;2022-09-21T07:45:17;32.90;30.40
14798;DHT22;7490;63.708;20.368;2022-09-21T07:47:43;32.80;30.20
14798;DHT22;7490;63.708;20.368;2022-09-21T07:50:09;32.60;30.30
14798;DHT22;7490;63.708;20.368;2022-09-21T07:52:34;32.70;30.40
14798;DHT22;7490;63.708;20.368;2022-09-21T07:55:00;32.70;30.10
14798;DHT22;7490;63.708;20.368;2022-09-21T07:57:26;32.80;30.00
14798;DHT22;7490;63.708;20.368;2022-09-21T08:00:11;32.80;30.00
14798;DHT22;7490;63.708;20.368;2022-09-21T08:02:37;32.90;30.10
14798;DHT22;7490;63.708;20.368;2022-09-21T08:05:03;33.10;30.00
14798;DHT22;7490;63.708;20.368;2022-09-21T08:07:28;33.20;29.90
14798;DHT22;7490;63.708;20.368;2022-09-21T08:09:54;33.20;29.70
14798;DHT22;7490;63.708;20.368;2022-09-21T08:12:20;33.20;29.80
14798;DHT22;7490;63.708;20.368;2022-09-21T08:14:46;33.10;29.70
14798;DHT22;7490;63.708;20.368;2022-09-21T08:17:13;33.20;29.80
14798;DHT22;7490;63.708;20.368;2022-09-21T08:19:39;33.30;29.70
14798;DHT22;7490;63.708;20.368;2022-09-21T08:22:05;33.40;29.60
14798;DHT22;7490;63.708;20.368;2022-09-21T08:24:31;33.40;29.40
14798;DHT22;7490;63.708;20.368;2022-09-21T08:26:58;33.40;29.40
14798;DHT22;7490;63.708;20.368;2022-09-21T08:29:25;33.40;29.50
14798;DHT22;7490;63.708;20.368;2022-09-21T08:31:51;33.50;29.40
14798;DHT22;7490;63.708;20.368;2022-09-21T08:34:18;33.50;29.30
14798;DHT22;7490;63.708;20.368;2022-09-21T08:36:44;33.60;29.20
14798;DHT22;7490;63.708;20.368;2022-09-21T08:39:11;33.40;29.30
14798;DHT22;7490;63.708;20.368;2022-09-21T08:46:42;33.40;29.20
14798;DHT22;7490;63.708;20.368;2022-09-21T08:49:14;33.30;29.20
14798;DHT22;7490;63.708;20.368;2022-09-21T08:51:46;33.10;29.20
14798;DHT22;7490;63.708;20.368;2022-09-21T08:54:20;32.90;29.40
14798;DHT22;7490;63.708;20.368;2022-09-21T08:56:46;32.50;29.80
14798;DHT22;7490;63.708;20.368;2022-09-21T08:59:13;32.30;30.10
14798;DHT22;7490;63.708;20.368;2022-09-21T09:07:21;30.80;31.20
14798;DHT22;7490;63.708;20.368;2022-09-21T09:17:55;29.60;33.10
14798;DHT22;7490;63.708;20.368;2022-09-21T09:20:30;29.70;33.00
14798;DHT22;7490;63.708;20.368;2022-09-21T09:23:18;29.90;33.10
14798;DHT22;7490;63.708;20.368;2022-09-21T09:25:49;30.20;32.50
14798;DHT22;7490;63.708;20.368;2022-09-21T09:28:33;30.40;32.00
14798;DHT22;7490;63.708;20.368;2022-09-21T09:31:21;30.40;31.90
14798;DHT22;7490;63.708;20.368;2022-09-21T09:34:12;30.30;32.00
14798;DHT22;7490;63.708;20.368;2022-09-21T09:36:45;30.20;31.90
14798;DHT22;7490;63.708;20.368;2022-09-21T09:39:13;30.30;32.30
14798;DHT22;7490;63.708;20.368;2022-09-21T09:51:55;30.70;31.90
14798;DHT22;7490;63.708;20.368;2022-09-21T09:54:26;30.70;31.80
14798;DHT22;7490;63.708;20.368;2022-09-21T09:56:53;30.70;31.70
14798;DHT22;7490;63.708;20.368;2022-09-21T10:02:20;30.70;32.00
14798;DHT22;7490;63.708;20.368;2022-09-21T10:05:04;30.80;32.00
14798;DHT22;7490;63.708;20.368;2022-09-21T10:10:00;30.60;32.20
14798;DHT22;7490;63.708;20.368;2022-09-21T10:12:25;30.10;32.50
14798;DHT22;7490;63.708;20.368;2022-09-21T10:14:55;29.60;33.20
14798;DHT22;7490;63.708;20.368;2022-09-21T10:17:23;29.40;33.80
14798;DHT22;7490;63.708;20.368;2022-09-21T10:20:04;29.30;34.00
14798;DHT22;7490;63.708;20.368;2022-09-21T10:22:30;29.30;34.00
14798;DHT22;7490;63.708;20.368;2022-09-21T10:24:57;29.30;34.00
14798;DHT22;7490;63.708;20.368;2022-09-21T10:27:33;29.00;34.20
14798;DHT22;7490;63.708;20.368;2022-09-21T10:29:59;28.70;35.20
14798;DHT22;7490;63.708;20.368;2022-09-21T10:32:26;28.50;35.10
14798;DHT22;7490;63.708;20.368;2022-09-21T10:35:13;28.40;35.20
14798;DHT22;7490;63.708;20.368;2022-09-21T10:37:44;28.10;35.40
14798;DHT22;7490;63.708;20.368;2022-09-21T10:42:45;27.60;36.10
14798;DHT22;7490;63.708;20.368;2022-09-21T10:50:42;26.50;37.90
14798;DHT22;7490;63.708;20.368;2022-09-21T10:58:21;26.50;38.40
14798;DHT22;7490;63.708;20.368;2022-09-21T11:00:49;26.60;38.30
14798;DHT22;7490;63.708;20.368;2022-09-21T11:03:43;26.70;38.20
14798;DHT22;7490;63.708;20.368;2022-09-21T11:06:20;26.50;38.30
14798;DHT22;7490;63.708;20.368;2022-09-21T11:09:04;26.20;38.80
14798;DHT22;7490;63.708;20.368;2022-09-21T11:11:42;25.70;39.50
14798;DHT22;7490;63.708;20.368;2022-09-21T11:14:29;25.00;40.10
14798;DHT22;7490;63.708;20.368;2022-09-21T11:17:26;24.10;41.40
14798;DHT22;7490;63.708;20.368;2022-09-21T11:20:21;23.00;42.90
14798;DHT22;7490;63.708;20.368;2022-09-21T11:23:02;21.60;45.20
14798;DHT22;7490;63.708;20.368;2022-09-21T11:37:17;18.30;52.60
14798;DHT22;7490;63.708;20.368;2022-09-21T11:45:22;17.50;56.20
14798;DHT22;7490;63.708;20.368;2022-09-21T11:48:04;17.30;56.50
14798;DHT22;7490;63.708;20.368;2022-09-21T11:56:57;17.10;58.20
14798;DHT22;7490;63.708;20.368;2022-09-21T12:04:56;17.00;59.00
14798;DHT22;7490;63.708;20.368;2022-09-21T12:12:35;17.00;60.00
14798;DHT22;7490;63.708;20.368;2022-09-21T12:15:15;17.00;60.50
14798;DHT22;7490;63.708;20.368;2022-09-21T12:18:09;16.90;60.60
14798;DHT22;7490;63.708;20.368;2022-09-21T12:20:48;16.90;61.10
14798;DHT22;7490;63.708;20.368;2022-09-21T12:23:40;16.90;61.20
14798;DHT22;7490;63.708;20.368;2022-09-21T12:26:08;16.80;61.40
14798;DHT22;7490;63.708;20.368;2022-09-21T12:28:45;16.90;61.50
14798;DHT22;7490;63.708;20.368;2022-09-21T12:31:28;16.90;61.60
14798;DHT22;7490;63.708;20.368;2022-09-21T12:34:01;16.80;61.60
14798;DHT22;7490;63.708;20.368;2022-09-21T12:36:29;16.90;61.80
14798;DHT22;7490;63.708;20.368;2022-09-21T12:39:03;16.80;61.80
14798;DHT22;7490;63.708;20.368;2022-09-21T12:41:37;16.80;61.80
14798;DHT22;7490;63.708;20.368;2022-09-21T12:44:25;16.80;61.90
14798;DHT22;7490;63.708;20.368;2022-09-21T12:47:03;16.70;62.20
14798;DHT22;7490;63.708;20.368;2022-09-21T12:49:42;16.70;62.40
14798;DHT22;7490;63.708;20.368;2022-09-21T12:52:20;16.70;62.40
14798;DHT22;7490;63.708;20.368;2022-09-21T13:00:18;16.60;62.50
14798;DHT22;7490;63.708;20.368;2022-09-21T13:03:04;16.60;62.70
14798;DHT22;7490;63.708;20.368;2022-09-21T13:08:42;16.50;63.20
14798;DHT22;7490;63.708;20.368;2022-09-21T13:11:08;16.50;63.20
14798;DHT22;7490;63.708;20.368;2022-09-21T13:16:23;16.40;63.40
14798;DHT22;7490;63.708;20.368;2022-09-21T13:18:57;16.30;63.60
14798;DHT22;7490;63.708;20.368;2022-09-21T13:21:24;16.30;63.80
14798;DHT22;7490;63.708;20.368;2022-09-21T13:26:39;16.20;64.10
14798;DHT22;7490;63.708;20.368;2022-09-21T13:29:27;16.20;64.50
14798;DHT22;7490;63.708;20.368;2022-09-21T13:37:25;16.10;64.70
14798;DHT22;7490;63.708;20.368;2022-09-21T13:47:47;16.10;65.40
14798;DHT22;7490;63.708;20.368;2022-09-21T13:50:30;16.00;65.30
14798;DHT22;7490;63.708;20.368;2022-09-21T13:53:15;16.00;65.90
14798;DHT22;7490;63.708;20.368;2022-09-21T13:55:49;16.00;66.10
14798;DHT22;7490;63.708;20.368;2022-09-21T13:58:25;15.90;66.20
14798;DHT22;7490;63.708;20.368;2022-09-21T14:06:08;15.80;67.30
14798;DHT22;7490;63.708;20.368;2022-09-21T14:08:39;15.80;67.60
14798;DHT22;7490;63.708;20.368;2022-09-21T14:11:16;15.70;67.90
14798;DHT22;7490;63.708;20.368;2022-09-21T14:14:00;15.70;68.40
14798;DHT22;7490;63.708;20.368;2022-09-21T14:19:03;15.60;68.70
14798;DHT22;7490;63.708;20.368;2022-09-21T14:24:42;15.50;69.60
14798;DHT22;7490;63.708;20.368;2022-09-21T14:32:58;15.40;70.00
14798;DHT22;7490;63.708;20.368;2022-09-21T14:35:32;15.40;70.50
14798;DHT22;7490;63.708;20.368;2022-09-21T14:38:02;15.30;70.50
14798;DHT22;7490;63.708;20.368;2022-09-21T14:40:34;15.30;70.80
14798;DHT22;7490;63.708;20.368;2022-09-21T14:43:09;15.30;71.10
14798;DHT22;7490;63.708;20.368;2022-09-21T15:01:40;14.90;72.30
14798;DHT22;7490;63.708;20.368;2022-09-21T15:07:32;14.80;72.30
14798;DHT22;7490;63.708;20.368;2022-09-21T15:10:31;14.80;72.60
14798;DHT22;7490;63.708;20.368;2022-09-21T15:21:48;14.60;73.00
14798;DHT22;7490;63.708;20.368;2022-09-21T15:26:45;14.60;73.40
14798;DHT22;7490;63.708;20.368;2022-09-21T15:29:25;14.60;73.50
14798;DHT22;7490;63.708;20.368;2022-09-21T15:31:52;14.60;74.00
14798;DHT22;7490;63.708;20.368;2022-09-21T15:34:19;14.60;73.90
14798;DHT22;7490;63.708;20.368;2022-09-21T15:36:46;14.50;74.00
14798;DHT22;7490;63.708;20.368;2022-09-21T15:39:26;14.50;74.10
14798;DHT22;7490;63.708;20.368;2022-09-21T15:44:34;14.50;74.80
14798;DHT22;7490;63.708;20.368;2022-09-21T15:47:03;14.40;74.50
14798;DHT22;7490;63.708;20.368;2022-09-21T15:49:33;14.40;74.80
14798;DHT22;7490;63.708;20.368;2022-09-21T15:54:57;14.30;75.50
14798;DHT22;7490;63.708;20.368;2022-09-21T15:57:33;14.30;75.60
14798;DHT22;7490;63.708;20.368;2022-09-21T16:00:04;14.20;75.90
14798;DHT22;7490;63.708;20.368;2022-09-21T16:02:37;14.20;76.10
14798;DHT22;7490;63.708;20.368;2022-09-21T16:05:06;14.20;76.40
14798;DHT22;7490;63.708;20.368;2022-09-21T16:07:37;14.10;76.50
14798;DHT22;7490;63.708;20.368;2022-09-21T16:16:09;14.00;77.40
14798;DHT22;7490;63.708;20.368;2022-09-21T16:21:20;13.90;77.70
14798;DHT22;7490;63.708;20.368;2022-09-21T16:23:48;13.90;77.80
14798;DHT22;7490;63.708;20.368;2022-09-21T16:26:40;13.90;78.10
14798;DHT22;7490;63.708;20.368;2022-09-21T16:29:17;13.80;78.50
14798;DHT22;7490;63.708;20.368;2022-09-21T16:31:44;13.80;78.70
14798;DHT22;7490;63.708;20.368;2022-09-21T16:34:21;13.80;78.80
14798;DHT22;7490;63.708;20.368;2022-09-21T16:36:49;13.70;79.30
14798;DHT22;7490;63.708;20.368;2022-09-21T16:39:17;13.70;80.10
14798;DHT22;7490;63.708;20.368;2022-09-21T16:44:19;13.60;80.10
14798;DHT22;7490;63.708;20.368;2022-09-21T16:46:58;13.60;80.40
14798;DHT22;7490;63.708;20.368;2022-09-21T16:49:26;13.60;80.60
14798;DHT22;7490;63.708;20.368;2022-09-21T16:51:54;13.50;80.80
14798;DHT22;7490;63.708;20.368;2022-09-21T16:54:20;13.50;81.00
14798;DHT22;7490;63.708;20.368;2022-09-21T16:56:49;13.50;81.20
14798;DHT22;7490;63.708;20.368;2022-09-21T16:59:17;13.50;81.40
14798;DHT22;7490;63.708;20.368;2022-09-21T17:01:44;13.40;81.60
14798;DHT22;7490;63.708;20.368;2022-09-21T17:04:14;13.40;81.80
14798;DHT22;7490;63.708;20.368;2022-09-21T17:06:39;13.40;82.10
14798;DHT22;7490;63.708;20.368;2022-09-21T17:11:40;13.40;82.60
14798;DHT22;7490;63.708;20.368;2022-09-21T17:14:09;13.40;82.60
14798;DHT22;7490;63.708;20.368;2022-09-21T17:16:38;13.40;82.70
14798;DHT22;7490;63.708;20.368;2022-09-21T17:19:04;13.30;82.80
14798;DHT22;7490;63.708;20.368;2022-09-21T17:21:29;13.30;83.10
14798;DHT22;7490;63.708;20.368;2022-09-21T17:23:55;13.30;83.30
14798;DHT22;7490;63.708;20.368;2022-09-21T17:26:21;13.30;83.60
14798;DHT22;7490;63.708;20.368;2022-09-21T17:28:46;13.30;83.70
14798;DHT22;7490;63.708;20.368;2022-09-21T17:31:14;13.20;83.60
14798;DHT22;7490;63.708;20.368;2022-09-21T17:33:41;13.20;83.80
14798;DHT22;7490;63.708;20.368;2022-09-21T17:36:13;13.20;84.00
14798;DHT22;7490;63.708;20.368;2022-09-21T17:38:39;13.20;84.10
14798;DHT22;7490;63.708;20.368;2022-09-21T17:41:21;13.20;84.00
14798;DHT22;7490;63.708;20.368;2022-09-21T17:46:57;13.10;84.30
14798;DHT22;7490;63.708;20.368;2022-09-21T17:49:24;13.10;84.30
14798;DHT22;7490;63.708;20.368;2022-09-21T17:51:50;13.10;84.20
14798;DHT22;7490;63.708;20.368;2022-09-21T17:54:34;13.10;84.40
14798;DHT22;7490;63.708;20.368;2022-09-21T17:59:39;13.00;84.80
14798;DHT22;7490;63.708;20.368;2022-09-21T18:02:22;13.00;84.70
14798;DHT22;7490;63.708;20.368;2022-09-21T18:04:54;13.00;84.80
14798;DHT22;7490;63.708;20.368;2022-09-21T18:07:22;13.00;84.70
14798;DHT22;7490;63.708;20.368;2022-09-21T18:09:50;13.00;84.80
14798;DHT22;7490;63.708;20.368;2022-09-21T18:18:01;12.90;84.70
14798;DHT22;7490;63.708;20.368;2022-09-21T18:20:51;12.90;84.70
14798;DHT22;7490;63.708;20.368;2022-09-21T18:25:53;12.90;84.90
14798;DHT22;7490;63.708;20.368;2022-09-21T18:28:36;12.90;84.80
14798;DHT22;7490;63.708;20.368;2022-09-21T18:36:50;12.90;84.70
14798;DHT22;7490;63.708;20.368;2022-09-21T18:45:13;12.80;84.60
14798;DHT22;7490;63.708;20.368;2022-09-21T18:48:15;12.80;84.50
14798;DHT22;7490;63.708;20.368;2022-09-21T18:53:35;12.80;84.60
14798;DHT22;7490;63.708;20.368;2022-09-21T18:56:06;12.80;84.60
14798;DHT22;7490;63.708;20.368;2022-09-21T18:58:33;12.80;84.40
14798;DHT22;7490;63.708;20.368;2022-09-21T19:00:59;12.80;84.60
14798;DHT22;7490;63.708;20.368;2022-09-21T19:03:25;12.70;84.50
14798;DHT22;7490;63.708;20.368;2022-09-21T19:06:24;12.70;84.60
14798;DHT22;7490;63.708;20.368;2022-09-21T19:14:40;12.70;84.80
14798;DHT22;7490;63.708;20.368;2022-09-21T19:31:39;12.70;85.40
14798;DHT22;7490;63.708;20.368;2022-09-21T19:34:15;12.70;85.40
14798;DHT22;7490;63.708;20.368;2022-09-21T19:36:43;12.60;85.60
14798;DHT22;7490;63.708;20.368;2022-09-21T19:39:10;12.60;85.80
14798;DHT22;7490;63.708;20.368;2022-09-21T19:42:12;12.60;86.00
14798;DHT22;7490;63.708;20.368;2022-09-21T19:47:10;12.60;86.00
14798;DHT22;7490;63.708;20.368;2022-09-21T19:49:53;12.50;86.20
14798;DHT22;7490;63.708;20.368;2022-09-21T19:52:28;12.50;86.60
14798;DHT22;7490;63.708;20.368;2022-09-21T19:54:55;12.50;86.80
14798;DHT22;7490;63.708;20.368;2022-09-21T19:57:40;12.50;86.80
14798;DHT22;7490;63.708;20.368;2022-09-21T20:00:25;12.50;86.80
14798;DHT22;7490;63.708;20.368;2022-09-21T20:03:14;12.40;87.00
14798;DHT22;7490;63.708;20.368;2022-09-21T20:05:50;12.40;87.40
14798;DHT22;7490;63.708;20.368;2022-09-21T20:08:21;12.40;87.20
14798;DHT22;7490;63.708;20.368;2022-09-21T20:16:58;12.30;87.40
14798;DHT22;7490;63.708;20.368;2022-09-21T20:19:40;12.30;87.40
14798;DHT22;7490;63.708;20.368;2022-09-21T20:22:14;12.20;87.60
14798;DHT22;7490;63.708;20.368;2022-09-21T20:29:46;12.20;88.00
14798;DHT22;7490;63.708;20.368;2022-09-21T20:32:12;12.10;88.10
14798;DHT22;7490;63.708;20.368;2022-09-21T20:34:38;12.20;88.40
14798;DHT22;7490;63.708;20.368;2022-09-21T20:37:10;12.10;88.60
14798;DHT22;7490;63.708;20.368;2022-09-21T20:39:37;12.10;88.90
14798;DHT22;7490;63.708;20.368;2022-09-21T20:42:02;12.00;88.90